Sewaren, NJ (07077)

6:43 PM EDT on August 21, 2014 (GMT -0400)
Main St and Amboy Ave | Change Station
CLOSE
Current Station
Personal Weather Station
Location: Woodbridge, NJ
Elevation: 43 ft
Nearby Weather Stations

Elev 43 ft 40.55 °N, 74.28 °W | Updated 1 second ago

Clear
Clear
76.1 °F
Feels Like 78 °F
N
0.0
Wind Variable Wind from SSE
Gusts 5.0 mph

Today
High -- | Low -- °F
--% Chance of Precip.
Yesterday
High -- | Low -- °F
Precip. -- in
6:13 AM 7:46 PM
Waning Crescent, 12% visible
Pressure 30.02 in
Visibility 10.0 miles
Clouds Clear
Heat Index 78 °F
Dew Point 60 °F
Humidity 57%
Rainfall 0.00 in
Snow Depth Not available.
UV 1 out of 12
Pollen 8.70 out of 12
Air Quality Not available.
Flu Activity Not available.
METAR KLDJ 212235Z AUTO 14008KT 10SM CLR 26/18 A3002 RMK AO2 T02620175

More Conditions Fewer Conditions

Pressure 30.02 in
Visibility 10.0 miles
Clouds Clear
Heat Index 78 °F
Dew Point 60 °F
Humidity 57%
Rainfall 0.00 in
Snow Depth Not available.
UV 1 out of 12
Pollen 8.70 out of 12
Air Quality Not available.
Flu Activity Not available.
METAR KLDJ 212235Z AUTO 14008KT 10SM CLR 26/18 A3002 RMK AO2 T02620175

More Conditions Fewer Conditions

10-Day Weather Forecast

Almanac

Astronomy

Aug. 21, 2014 Rise Set
Actual Time 6:13 AM EDT 7:46 PM EDT
Civil Twilight 5:44 AM EDT 8:14 PM EDT
Nautical Twilight 5:09 AM EDT 8:49 PM EDT
Astronomical Twilight 4:32 AM EDT 9:26 PM EDT
Moon 2:41 AM EDT 5:13 PM EDT
Length of Visible Light 14h 30m
Length of Day
13h 32m
Tomorrow will be 2m 27s shorter.
Waning Crescent, 12% of the Moon is Illuminated
Today
Waning Crescent
Aug 25
New
Sep 2
First Quarter
Sep 8
Full
Sep 15
Last Quarter

Today's Extremes

State Highs State Lows

Community

WunderPhotos

Upload Photos

1,746,044 photos uploaded!

WunderBlogs® & News

Nearby

Snow Depth

Station Depth Elevation
No new snow has been reported.

Earthquake Activity

City Distance Mag. Time & Date
No recent earthquake activity has been reported nearby.
Minimum magnitude displayed is 2.5.

Coastal Water Temperatures

Place Temperature
Sandy Hook, NJ 75.0 °F
The Battery, NY 73.0 °F
Bergen Point West Reach, NJ 73.9 °F
Kings Point, NY 73.0 °F

Nearby Weather Stations